Time;durP1;ratioP1;P1;durP2;ratioP2;P2;SDS_P1;SDS_P2;PMS_P1;PMS_P2;Temp;Humidity;BMP_temperature;BMP_pressure;BME280_temperature;BME280_humidity;BME280_pressure;Samples;Min_cycle;Max_cycle;Signal;HPM_P1;HPM_P2
2022/03/22 00:00:37;;;;;;;;;;;;;;;17.22;54.94;100734.94;2093220;28;19920;-54
2022/03/22 00:01:38;;;;;;;;;;;;;;;17.22;54.79;100735.84;2091618;28;20387;-52
2022/03/22 00:02:38;;;;;;;;;;;;;;;17.23;54.87;100731.25;2087927;28;19956;-53
2022/03/22 00:03:38;;;;;;;;;;;;;;;17.22;54.90;100727.66;2091660;28;19912;-54
2022/03/22 00:04:39;;;;;;;;;;;;;;;17.22;54.98;100732.22;2092268;28;19920;-54
2022/03/22 00:05:41;;;;;;;;;;;;;;;17.21;54.73;100733.22;2091924;28;19959;-54
2022/03/22 00:06:42;;;;;;;;;;;;;;;17.21;54.78;100727.78;2089238;28;20267;-53
2022/03/22 00:07:42;;;;;;;;;;;;;;;17.20;55.00;100726.03;2091262;28;20184;-53
2022/03/22 00:08:43;;;;;;;;;;;;;;;17.20;54.82;100720.56;2090252;28;19928;-52
2022/03/22 00:09:44;;;;;;;;;;;;;;;17.21;54.76;100725.06;2091550;28;20294;-53
2022/03/22 00:10:44;;;;;;;;;;;;;;;17.19;54.83;100725.16;2082343;28;19920;-52
2022/03/22 00:11:45;;;;;;;;;;;;;;;17.21;54.90;100719.59;2084032;28;19924;-54
2022/03/22 00:12:45;;;;;;;;;;;;;;;17.19;54.76;100730.59;2090870;28;19927;-54
2022/03/22 00:13:46;;;;;;;;;;;;;;;17.19;54.67;100724.28;2090122;28;19920;-55
2022/03/22 00:14:47;;;;;;;;;;;;;;;17.19;54.74;100727.88;2089993;28;19913;-52
2022/03/22 00:15:47;;;;;;;;;;;;;;;17.19;54.83;100725.16;2084204;28;20327;-53
2022/03/22 00:16:48;;;;;;;;;;;;;;;17.19;55.01;100721.56;2096413;28;20311;-54
2022/03/22 00:17:48;;;;;;;;;;;;;;;17.20;54.85;100726.03;2092878;28;19930;-53
2022/03/22 00:18:48;;;;;;;;;;;;;;;17.20;54.92;100720.56;2093533;28;19956;-52
2022/03/22 00:19:49;;;;;;;;;;;;;;;17.19;54.78;100722.44;2094715;28;20175;-54
2022/03/22 00:20:49;;;;;;;;;;;;;;;17.19;54.71;100724.28;2089014;28;19931;-53
2022/03/22 00:21:50;;;;;;;;;;;;;;;17.19;54.84;100724.28;2095481;28;20337;-53
2022/03/22 00:22:51;;;;;;;;;;;;;;;17.19;54.75;100724.28;2085996;28;19921;-53
2022/03/22 00:23:52;;;;;;;;;;;;;;;17.17;54.68;100721.69;2080438;28;20390;-53
2022/03/22 00:24:53;;;;;;;;;;;;;;;17.19;54.85;100724.28;2087153;28;19920;-54
2022/03/22 00:25:53;;;;;;;;;;;;;;;17.18;54.70;100728.03;2086011;28;20214;-54
2022/03/22 00:26:53;;;;;;;;;;;;;;;17.17;54.81;100724.41;2090133;28;20497;-53
2022/03/22 00:27:54;;;;;;;;;;;;;;;17.17;54.86;100720.81;2092889;28;19988;-53
2022/03/22 00:28:54;;;;;;;;;;;;;;;17.17;54.71;100713.50;2088378;28;19916;-53
2022/03/22 00:29:54;;;;;;;;;;;;;;;17.17;54.85;100715.38;2097998;28;20305;-53
2022/03/22 00:30:55;;;;;;;;;;;;;;;17.18;54.67;100717.13;2085932;28;19976;-53
2022/03/22 00:31:56;;;;;;;;;;;;;;;17.17;54.74;100720.81;2089497;28;20010;-53
2022/03/22 00:32:58;;;;;;;;;;;;;;;17.17;54.77;100715.38;2085133;28;19927;-53
2022/03/22 00:33:58;;;;;;;;;;;;;;;17.16;54.85;100713.66;2091964;28;19924;-54
2022/03/22 00:34:58;;;;;;;;;;;;;;;17.15;54.77;100718.25;2091052;28;19920;-53
2022/03/22 00:35:59;;;;;;;;;;;;;;;17.17;54.79;100712.66;2091931;28;20088;-53
2022/03/22 00:36:59;;;;;;;;;;;;;;;17.17;54.71;100709.94;2087170;28;19921;-53
2022/03/22 00:38:00;;;;;;;;;;;;;;;17.18;54.78;100711.69;2090750;28;19959;-53
2022/03/22 00:39:02;;;;;;;;;;;;;;;17.17;54.67;100707.19;2087830;28;20384;-54
2022/03/22 00:40:06;;;;;;;;;;;;;;;17.16;54.87;100713.66;2092655;28;19924;-53
2022/03/22 00:41:07;;;;;;;;;;;;;;;17.14;54.82;100711.03;2093515;28;19916;-54
2022/03/22 00:42:07;;;;;;;;;;;;;;;17.15;54.92;100704.63;2088080;28;19994;-52
2022/03/22 00:43:08;;;;;;;;;;;;;;;17.13;54.84;100704.72;2089309;28;19912;-53
2022/03/22 00:44:08;;;;;;;;;;;;;;;17.12;55.10;100703.00;2090791;28;20083;-54
2022/03/22 00:45:10;;;;;;;;;;;;;;;17.13;54.82;100709.31;2089866;28;19966;-54
2022/03/22 00:46:11;;;;;;;;;;;;;;;17.13;54.91;100701.16;2091284;28;20353;-52
2022/03/22 00:47:12;;;;;;;;;;;;;;;17.12;55.02;100697.56;2087815;28;19980;-54
2022/03/22 00:48:12;;;;;;;;;;;;;;;17.12;54.76;100693.94;2094977;28;19951;-53
2022/03/22 00:49:13;;;;;;;;;;;;;;;17.12;55.00;100697.56;2088971;28;20195;-53
2022/03/22 00:50:14;;;;;;;;;;;;;;;17.12;55.03;100694.84;2088378;28;20455;-53
2022/03/22 00:51:15;;;;;;;;;;;;;;;17.13;55.02;100696.56;2091417;28;20536;-53
2022/03/22 00:52:15;;;;;;;;;;;;;;;17.13;54.92;100698.41;2087478;28;20258;-52
2022/03/22 00:53:18;;;;;;;;;;;;;;;17.12;54.92;100692.13;2090052;28;19956;-53
2022/03/22 00:54:20;;;;;;;;;;;;;;;17.11;55.02;100698.53;2084439;28;20200;-53
2022/03/22 00:55:23;;;;;;;;;;;;;;;17.12;55.00;100693.94;2091260;28;19973;-53
2022/03/22 00:56:24;;;;;;;;;;;;;;;17.10;54.97;100691.38;2091231;28;19927;-53
2022/03/22 00:57:25;;;;;;;;;;;;;;;17.12;54.86;100700.28;2083292;28;20110;-54
2022/03/22 00:58:25;;;;;;;;;;;;;;;17.13;54.83;100699.28;2087041;28;19912;-53
2022/03/22 01:00:45;;;;;;;;;;;;;;;17.12;54.98;100694.84;2089480;28;19913;-53
2022/03/22 01:01:45;;;;;;;;;;;;;;;17.12;55.04;100689.38;2084377;28;20113;-54
2022/03/22 01:02:49;;;;;;;;;;;;;;;17.13;54.90;100693.84;2097849;28;19947;-53
2022/03/22 01:03:50;;;;;;;;;;;;;;;17.14;54.83;100690.09;2091830;28;20407;-54
2022/03/22 01:04:51;;;;;;;;;;;;;;;17.14;54.91;100692.84;2091333;28;20289;-54
2022/03/22 01:05:52;;;;;;;;;;;;;;;17.15;55.08;100699.16;2093169;28;19912;-53
2022/03/22 01:06:53;;;;;;;;;;;;;;;17.16;54.92;100694.59;2091068;28;19931;-54
2022/03/22 01:07:55;;;;;;;;;;;;;;;17.16;55.03;100703.63;2094209;28;19958;-54
2022/03/22 01:08:55;;;;;;;;;;;;;;;17.17;55.02;100693.59;2089822;28;19920;-54
2022/03/22 01:09:56;;;;;;;;;;;;;;;17.17;54.89;100690.84;2088232;28;20010;-54
2022/03/22 01:10:56;;;;;;;;;;;;;;;17.18;54.78;100695.34;2086169;28;20007;-53
2022/03/22 01:11:57;;;;;;;;;;;;;;;17.18;55.03;100696.19;2093123;28;19924;-54
2022/03/22 01:12:57;;;;;;;;;;;;;;;17.19;55.02;100695.19;2090245;28;19942;-54
2022/03/22 01:13:58;;;;;;;;;;;;;;;17.19;54.91;100691.59;2089250;28;20249;-54
2022/03/22 01:15:00;;;;;;;;;;;;;;;17.17;54.88;100689.00;2092081;28;20480;-53
2022/03/22 01:16:01;;;;;;;;;;;;;;;17.18;54.89;100692.59;2090153;28;19928;-52
2022/03/22 01:17:01;;;;;;;;;;;;;;;17.16;54.94;100680.97;2093035;28;20227;-54
2022/03/22 01:18:07;;;;;;;;;;;;;;;17.18;54.98;100689.88;2089218;28;20345;-53
2022/03/22 01:19:07;;;;;;;;;;;;;;;17.18;54.90;100695.34;2083593;28;19999;-53
2022/03/22 01:20:11;;;;;;;;;;;;;;;17.17;55.00;100689.00;2083422;28;19964;-54
2022/03/22 01:21:12;;;;;;;;;;;;;;;17.17;54.94;100682.69;2080940;28;20035;-53
2022/03/22 01:22:14;;;;;;;;;;;;;;;17.18;54.89;100695.34;2089287;28;19917;-54
2022/03/22 01:23:15;;;;;;;;;;;;;;;17.17;55.10;100694.44;2087820;28;20391;-54
2022/03/22 01:24:15;;;;;;;;;;;;;;;17.16;54.94;100691.84;2090097;28;19916;-54
2022/03/22 01:25:27;;;;;;;;;;;;;;;17.14;54.94;100683.78;2092217;28;19920;-53
2022/03/22 01:26:27;;;;;;;;;;;;;;;17.13;54.97;100682.94;2088416;28;19940;-54
2022/03/22 01:27:27;;;;;;;;;;;;;;;17.13;55.09;100685.66;2092536;28;19933;-54
2022/03/22 01:28:28;;;;;;;;;;;;;;;17.13;54.92;100688.38;2092677;28;20795;-54
2022/03/22 01:29:28;;;;;;;;;;;;;;;17.13;55.15;100684.81;2090488;28;19920;-54
2022/03/22 01:30:29;;;;;;;;;;;;;;;17.12;55.15;100681.22;2087407;28;20341;-53
2022/03/22 01:31:30;;;;;;;;;;;;;;;17.12;55.01;100683.94;2092158;28;20774;-54
2022/03/22 01:32:30;;;;;;;;;;;;;;;17.12;55.10;100680.31;2092540;28;20740;-54
2022/03/22 01:33:30;;;;;;;;;;;;;;;17.11;55.10;100690.34;2080686;28;20031;-54
2022/03/22 01:34:31;;;;;;;;;;;;;;;17.10;54.97;100677.75;2082411;28;19931;-54
2022/03/22 01:35:31;;;;;;;;;;;;;;;17.11;54.95;100678.59;2086207;28;19924;-54
2022/03/22 01:36:32;;;;;;;;;;;;;;;17.09;54.94;100681.44;2091986;28;20427;-53
2022/03/22 01:37:32;;;;;;;;;;;;;;;17.09;55.12;100676.00;2088549;28;20326;-54
2022/03/22 01:38:33;;;;;;;;;;;;;;;17.09;55.04;100684.16;2088821;28;19917;-54
2022/03/22 01:39:33;;;;;;;;;;;;;;;17.10;55.05;100679.59;2092493;28;19916;-54
2022/03/22 01:40:33;;;;;;;;;;;;;;;17.10;55.19;100677.75;2091074;28;20769;-54
2022/03/22 01:41:34;;;;;;;;;;;;;;;17.10;55.04;100672.28;2088759;28;19956;-54
2022/03/22 01:42:35;;;;;;;;;;;;;;;17.10;55.01;100677.75;2091620;28;19943;-54
2022/03/22 01:43:35;;;;;;;;;;;;;;;17.10;55.07;100680.47;2080689;28;19928;-53
2022/03/22 01:44:36;;;;;;;;;;;;;;;17.11;55.19;100684.06;2076680;28;19920;-54
2022/03/22 01:45:37;;;;;;;;;;;;;;;17.10;54.83;100683.19;2082358;28;19981;-53
2022/03/22 01:46:37;;;;;;;;;;;;;;;17.12;54.82;100677.59;2093756;28;19924;-53
2022/03/22 01:47:38;;;;;;;;;;;;;;;17.11;54.90;100674.00;2092992;28;20014;-52
2022/03/22 01:48:39;;;;;;;;;;;;;;;17.11;54.92;100679.47;2080266;28;20360;-53
2022/03/22 01:49:41;;;;;;;;;;;;;;;17.12;55.01;100678.50;2077786;28;20739;-54
2022/03/22 01:50:42;;;;;;;;;;;;;;;17.12;54.83;100673.03;2080280;28;20308;-54
2022/03/22 01:51:42;;;;;;;;;;;;;;;17.12;55.01;100672.16;2085440;28;19920;-54
2022/03/22 01:52:46;;;;;;;;;;;;;;;17.11;55.00;100664.97;2092872;28;20640;-54
2022/03/22 01:53:47;;;;;;;;;;;;;;;17.13;55.17;100671.19;2077869;28;19921;-54
2022/03/22 01:54:50;;;;;;;;;;;;;;;17.11;54.86;100668.56;2082319;28;20223;-54
2022/03/22 01:55:50;;;;;;;;;;;;;;;17.13;54.88;100671.19;2092173;28;20606;-53
2022/03/22 01:56:50;;;;;;;;;;;;;;;17.12;54.86;100662.16;2089582;28;19920;-54
2022/03/22 01:57:51;;;;;;;;;;;;;;;17.12;54.94;100659.44;2094785;28;19923;-52
2022/03/22 01:58:51;;;;;;;;;;;;;;;17.11;54.87;100657.66;2087959;28;19916;-52
2022/03/22 01:59:52;;;;;;;;;;;;;;;17.12;54.85;100664.88;2082155;28;19980;-54
2022/03/22 02:05:51;;;;;;;;;;;;;;;17.13;54.92;100660.28;2084697;28;19952;-54
2022/03/22 02:06:10;;;;;;;;;;;;;;;17.13;55.04;100661.16;2090156;28;19924;-53
2022/03/22 02:07:12;;;;;;;;;;;;;;;17.14;55.04;100656.56;2097078;28;19912;-53
2022/03/22 02:08:15;;;;;;;;;;;;;;;17.14;55.07;100653.84;2092830;28;19920;-54
2022/03/22 02:09:16;;;;;;;;;;;;;;;17.14;55.02;100651.97;2097291;28;20574;-52
2022/03/22 02:10:17;;;;;;;;;;;;;;;17.14;55.07;100651.97;2097615;28;19926;-53
2022/03/22 02:11:18;;;;;;;;;;;;;;;17.13;54.91;100655.69;2088401;28;19935;-54
2022/03/22 02:12:18;;;;;;;;;;;;;;;17.14;55.00;100651.09;2082446;28;20524;-53
2022/03/22 02:13:18;;;;;;;;;;;;;;;17.13;55.07;100650.25;2081926;28;20038;-53
2022/03/22 02:14:18;;;;;;;;;;;;;;;17.13;55.22;100649.38;2093535;28;19912;-54
2022/03/22 02:15:19;;;;;;;;;;;;;;;17.13;54.97;100658.41;2090388;28;20288;-53
2022/03/22 02:16:19;;;;;;;;;;;;;;;17.13;55.26;100661.16;2092055;28;19927;-53
2022/03/22 02:17:20;;;;;;;;;;;;;;;17.11;55.09;100654.94;2094418;28;20350;-53
2022/03/22 02:18:20;;;;;;;;;;;;;;;17.13;55.11;100649.38;2093184;28;20334;-52
2022/03/22 02:19:21;;;;;;;;;;;;;;;17.12;55.24;100659.44;2091414;28;19931;-52
2022/03/22 02:20:21;;;;;;;;;;;;;;;17.13;55.19;100660.28;2090366;28;19927;-52
2022/03/22 02:21:23;;;;;;;;;;;;;;;17.13;55.10;100661.16;2091272;28;19942;-53
2022/03/22 02:22:35;;;;;;;;;;;;;;;17.13;55.23;100652.13;2089150;28;19920;-52
2022/03/22 02:23:48;;;;;;;;;;;;;;;17.12;55.16;100651.25;2095101;28;19920;-52
2022/03/22 02:24:49;;;;;;;;;;;;;;;17.12;55.06;100653.97;2096831;28;19926;-53
2022/03/22 02:25:49;;;;;;;;;;;;;;;17.12;55.04;100659.44;2089545;28;20334;-53
2022/03/22 02:26:50;;;;;;;;;;;;;;;17.13;55.31;100657.56;2092830;28;19916;-53
2022/03/22 02:27:53;;;;;;;;;;;;;;;17.12;55.36;100659.44;2085912;28;19924;-52
2022/03/22 02:28:53;;;;;;;;;;;;;;;17.11;55.13;100646.78;2089629;28;19916;-52
2022/03/22 02:29:54;;;;;;;;;;;;;;;17.11;55.05;100646.78;2087662;28;19920;-54
2022/03/22 02:30:54;;;;;;;;;;;;;;;17.11;55.20;100648.63;2089268;28;19920;-53
2022/03/22 02:31:55;;;;;;;;;;;;;;;17.10;55.25;100645.06;2093839;28;19923;-53
2022/03/22 02:32:57;;;;;;;;;;;;;;;17.08;55.05;100636.13;2080682;28;19916;-53
2022/03/22 02:33:57;;;;;;;;;;;;;;;17.09;55.30;100643.31;2079889;28;20075;-53
2022/03/22 02:34:58;;;;;;;;;;;;;;;17.08;55.20;100633.41;2088156;28;19946;-53
2022/03/22 02:35:58;;;;;;;;;;;;;;;17.09;55.20;100634.28;2090556;28;19919;-53
2022/03/22 02:36:59;;;;;;;;;;;;;;;17.08;55.06;100636.13;2087689;28;20019;-54
2022/03/22 02:37:59;;;;;;;;;;;;;;;17.08;55.13;100630.69;2093901;28;19909;-54
2022/03/22 02:38:59;;;;;;;;;;;;;;;17.07;55.17;100626.22;2090593;28;19915;-52
2022/03/22 02:40:00;;;;;;;;;;;;;;;17.06;55.18;100621.78;2096550;28;20381;-54
2022/03/22 02:41:01;;;;;;;;;;;;;;;17.06;55.18;100621.78;2086981;28;20196;-54
2022/03/22 02:42:01;;;;;;;;;;;;;;;17.07;55.23;100619.91;2092002;28;20776;-54
2022/03/22 02:43:02;;;;;;;;;;;;;;;17.07;55.17;100626.22;2090004;28;19920;-53
2022/03/22 02:44:02;;;;;;;;;;;;;;;17.06;55.29;100621.78;2088190;28;19920;-53
2022/03/22 02:45:02;;;;;;;;;;;;;;;17.06;55.29;100616.31;2084398;28;20175;-54
2022/03/22 02:46:03;;;;;;;;;;;;;;;17.06;55.22;100616.31;2093211;28;20458;-53
2022/03/22 02:47:04;;;;;;;;;;;;;;;17.05;55.23;100614.59;2088923;28;19928;-56
2022/03/22 02:48:04;;;;;;;;;;;;;;;17.05;55.14;100614.59;2090247;28;19940;-54
2022/03/22 02:49:07;;;;;;;;;;;;;;;17.04;55.14;100612.84;2091002;28;19920;-54
2022/03/22 02:50:09;;;;;;;;;;;;;;;17.04;55.25;100614.72;2086037;28;19920;-53
2022/03/22 02:51:09;;;;;;;;;;;;;;;17.05;55.13;100613.72;2099884;28;19963;-53
2022/03/22 02:52:10;;;;;;;;;;;;;;;17.06;55.26;100612.75;2089683;28;19927;-54
2022/03/22 02:53:10;;;;;;;;;;;;;;;17.05;55.06;100613.72;2089997;28;19920;-53
2022/03/22 02:54:10;;;;;;;;;;;;;;;17.05;55.12;100614.59;2087409;28;20337;-53
2022/03/22 02:55:11;;;;;;;;;;;;;;;17.05;55.00;100611.88;2089233;28;20402;-53
2022/03/22 02:56:12;;;;;;;;;;;;;;;17.06;55.16;100616.31;2085985;28;20725;-53
2022/03/22 02:57:12;;;;;;;;;;;;;;;17.06;55.21;100620.91;2098583;28;19920;-53
2022/03/22 02:58:12;;;;;;;;;;;;;;;17.06;54.97;100618.19;2081634;28;20039;-54
2022/03/22 02:59:12;;;;;;;;;;;;;;;17.05;55.29;100613.72;2078937;28;19921;-53
2022/03/22 03:00:13;;;;;;;;;;;;;;;17.06;55.16;100615.47;2088246;28;20286;-53
2022/03/22 03:01:13;;;;;;;;;;;;;;;17.06;55.23;100615.47;2091163;28;19926;-53
2022/03/22 03:02:14;;;;;;;;;;;;;;;17.05;55.07;100614.59;2089359;28;19924;-51
2022/03/22 03:03:14;;;;;;;;;;;;;;;17.06;55.08;100613.59;2086651;28;19920;-53
2022/03/22 03:04:14;;;;;;;;;;;;;;;17.07;55.03;100618.03;2087972;28;19920;-54
2022/03/22 03:05:15;;;;;;;;;;;;;;;17.07;55.14;100612.59;2085274;28;19949;-52
2022/03/22 03:06:16;;;;;;;;;;;;;;;17.07;55.07;100612.59;2093766;28;19939;-53
2022/03/22 03:07:16;;;;;;;;;;;;;;;17.08;55.12;100608.91;2092126;28;19913;-53
2022/03/22 03:08:16;;;;;;;;;;;;;;;17.08;54.96;100614.34;2090022;28;20189;-54
2022/03/22 03:09:17;;;;;;;;;;;;;;;17.09;55.14;100616.06;2093481;28;20342;-54
2022/03/22 03:10:17;;;;;;;;;;;;;;;17.10;55.04;100615.09;2090575;28;19955;-54
2022/03/22 03:11:18;;;;;;;;;;;;;;;17.10;55.27;100617.81;2088685;28;20465;-54
2022/03/22 03:12:18;;;;;;;;;;;;;;;17.10;55.10;100611.50;2092721;28;19924;-54
2022/03/22 03:13:18;;;;;;;;;;;;;;;17.10;55.02;100612.38;2091936;28;20366;-53
2022/03/22 03:15:37;;;;;;;;;;;;;;;17.11;55.09;100608.63;2089027;28;19967;-52
2022/03/22 03:16:39;;;;;;;;;;;;;;;17.11;55.00;100616.81;2082403;28;19909;-53
2022/03/22 03:17:39;;;;;;;;;;;;;;;17.11;54.98;100608.63;2089189;28;19965;-53
2022/03/22 03:18:40;;;;;;;;;;;;;;;17.11;55.07;100614.09;2087345;28;20347;-54
2022/03/22 03:19:40;;;;;;;;;;;;;;;17.12;55.07;100609.50;2093580;28;20264;-54
2022/03/22 03:20:41;;;;;;;;;;;;;;;17.10;54.99;100612.38;2087082;28;20477;-53
2022/03/22 03:21:41;;;;;;;;;;;;;;;17.11;55.18;100614.09;2088170;28;20027;-53
2022/03/22 03:22:41;;;;;;;;;;;;;;;17.11;55.12;100614.09;2091462;28;19905;-54
2022/03/22 03:23:42;;;;;;;;;;;;;;;17.10;55.10;100620.53;2092628;28;19916;-54
2022/03/22 03:24:42;;;;;;;;;;;;;;;17.09;55.02;100610.63;2090478;28;19915;-54
2022/03/22 03:25:42;;;;;;;;;;;;;;;17.09;55.02;100617.94;2092968;28;20443;-54
2022/03/22 03:26:42;;;;;;;;;;;;;;;17.08;55.17;100614.34;2087849;28;19917;-53
2022/03/22 03:27:43;;;;;;;;;;;;;;;17.07;55.35;100615.31;2087917;28;19924;-53
2022/03/22 03:28:43;;;;;;;;;;;;;;;17.07;55.22;100601.69;2076208;28;19935;-50
2022/03/22 03:29:43;;;;;;;;;;;;;;;17.06;55.13;100610.88;2089514;28;19920;-54
2022/03/22 03:30:44;;;;;;;;;;;;;;;17.07;55.23;100611.72;2082886;28;19998;-53
2022/03/22 03:31:44;;;;;;;;;;;;;;;17.05;55.24;100614.59;2089636;28;20244;-53
2022/03/22 03:32:44;;;;;;;;;;;;;;;17.05;55.17;100617.31;2096266;28;19920;-54
2022/03/22 03:33:44;;;;;;;;;;;;;;;17.05;55.08;100617.31;2090992;28;20319;-53
2022/03/22 03:34:45;;;;;;;;;;;;;;;17.05;55.25;100614.59;2088171;28;20173;-54
2022/03/22 03:35:45;;;;;;;;;;;;;;;17.04;55.28;100614.72;2092567;28;19923;-53
2022/03/22 03:36:46;;;;;;;;;;;;;;;17.03;55.03;100616.56;2091799;28;19928;-54
2022/03/22 03:37:46;;;;;;;;;;;;;;;17.04;55.17;100606.53;2091227;28;19919;-54
2022/03/22 03:38:46;;;;;;;;;;;;;;;17.04;55.25;100606.53;2090201;28;20524;-53
2022/03/22 03:39:47;;;;;;;;;;;;;;;17.03;55.11;100605.69;2090024;28;19920;-54
2022/03/22 03:42:06;;;;;;;;;;;;;;;17.03;55.34;100607.53;2084191;28;19920;-53
2022/03/22 03:43:07;;;;;;;;;;;;;;;17.01;55.30;100607.66;2090033;28;20230;-54
2022/03/22 03:47:04;;;;;;;;;;;;;;;17.02;55.13;100608.53;2065871;28;20283;-54
2022/03/22 03:48:05;;;;;;;;;;;;;;;17.02;55.09;100592.19;2082636;28;19928;-52
2022/03/22 03:49:06;;;;;;;;;;;;;;;17.02;55.41;100601.22;2082226;28;19924;-54
2022/03/22 03:50:07;;;;;;;;;;;;;;;17.03;55.25;100600.22;2090257;28;19916;-52
2022/03/22 03:51:08;;;;;;;;;;;;;;;17.04;55.14;100595.66;2087099;28;19952;-54
2022/03/22 03:52:10;;;;;;;;;;;;;;;17.04;55.10;100601.09;2092305;28;19927;-52
2022/03/22 03:53:10;;;;;;;;;;;;;;;17.03;55.27;100602.97;2088260;28;20013;-53
2022/03/22 03:54:10;;;;;;;;;;;;;;;17.05;55.25;100602.81;2089258;28;20231;-52
2022/03/22 03:55:11;;;;;;;;;;;;;;;17.04;55.15;100596.50;2084809;28;20109;-53
2022/03/22 03:56:11;;;;;;;;;;;;;;;17.06;55.32;100612.75;2090691;28;20385;-53
2022/03/22 03:57:12;;;;;;;;;;;;;;;17.04;55.18;100591.06;2087739;28;19920;-53
2022/03/22 03:58:12;;;;;;;;;;;;;;;17.05;55.14;100608.25;2086764;28;20350;-53
2022/03/22 03:59:13;;;;;;;;;;;;;;;17.04;55.30;100601.09;2089544;28;20699;-53
2022/03/22 04:00:15;;;;;;;;;;;;;;;17.04;55.23;100596.50;2097231;28;19919;-54
2022/03/22 04:01:15;;;;;;;;;;;;;;;17.03;55.23;100594.78;2086035;28;20010;-54
2022/03/22 04:02:16;;;;;;;;;;;;;;;17.03;55.12;100597.50;2089540;28;19934;-52
2022/03/22 04:03:17;;;;;;;;;;;;;;;17.03;55.21;100611.13;2089385;28;20783;-54
2022/03/22 04:04:17;;;;;;;;;;;;;;;17.04;55.19;100607.41;2087564;28;19912;-53
2022/03/22 04:05:17;;;;;;;;;;;;;;;17.03;55.33;100605.69;2091134;28;20325;-53
2022/03/22 04:06:18;;;;;;;;;;;;;;;17.05;55.18;100597.38;2091860;28;19920;-54
2022/03/22 04:07:19;;;;;;;;;;;;;;;17.05;55.41;100608.25;2094152;28;19985;-53
2022/03/22 04:08:20;;;;;;;;;;;;;;;17.04;55.02;100601.94;2083578;28;20328;-54
2022/03/22 04:09:21;;;;;;;;;;;;;;;17.05;55.25;100597.38;2091986;28;19927;-53
2022/03/22 04:10:21;;;;;;;;;;;;;;;17.04;55.14;100601.09;2084724;28;19920;-53
2022/03/22 04:11:22;;;;;;;;;;;;;;;17.05;55.04;100600.97;2088803;28;19963;-54
2022/03/22 04:12:23;;;;;;;;;;;;;;;17.04;55.20;100601.94;2076033;28;19947;-54
2022/03/22 04:13:23;;;;;;;;;;;;;;;17.05;55.21;100603.72;2080508;28;20394;-53
2022/03/22 04:14:23;;;;;;;;;;;;;;;17.05;55.15;100608.25;2086319;28;20367;-54
2022/03/22 04:15:25;;;;;;;;;;;;;;;17.04;55.19;100606.53;2085743;28;20271;-54
2022/03/22 04:16:25;;;;;;;;;;;;;;;17.04;55.26;100607.41;2088864;28;19920;-54
2022/03/22 04:17:26;;;;;;;;;;;;;;;17.05;55.10;100614.59;2093292;28;19920;-53
2022/03/22 04:18:26;;;;;;;;;;;;;;;17.05;54.97;100613.72;2085135;28;19928;-53
2022/03/22 04:19:27;;;;;;;;;;;;;;;17.05;55.26;100597.38;2094463;28;20696;-53
2022/03/22 04:20:29;;;;;;;;;;;;;;;17.04;55.13;100601.94;2086732;28;19922;-54
2022/03/22 04:21:30;;;;;;;;;;;;;;;17.04;55.00;100606.53;2085551;28;19961;-54
2022/03/22 04:22:30;;;;;;;;;;;;;;;17.04;55.08;100606.53;2090197;28;19924;-53
2022/03/22 04:23:31;;;;;;;;;;;;;;;17.04;55.09;100612.00;2085169;28;20515;-54
2022/03/22 04:24:31;;;;;;;;;;;;;;;17.03;55.00;100616.56;2084538;28;19920;-53
2022/03/22 04:25:32;;;;;;;;;;;;;;;17.02;55.07;100614.81;2086165;28;20333;-53
2022/03/22 04:26:42;;;;;;;;;;;;;;;17.03;55.02;100611.13;2089632;28;19920;-54
2022/03/22 04:32:59;;;;;;;;;;;;;;;17.03;54.94;100616.56;2091734;28;19920;-53
2022/03/22 04:34:01;;;;;;;;;;;;;;;17.03;55.07;100621.16;2091471;28;19908;-53
2022/03/22 04:35:03;;;;;;;;;;;;;;;17.03;54.82;100622.03;2087427;28;19923;-53
2022/03/22 04:36:03;;;;;;;;;;;;;;;17.02;55.02;100625.72;2091631;28;19905;-53
2022/03/22 04:37:03;;;;;;;;;;;;;;;17.02;55.19;100620.28;2093052;28;19916;-54
2022/03/22 04:38:04;;;;;;;;;;;;;;;17.03;55.04;100622.03;2094262;28;19920;-54
2022/03/22 04:39:04;;;;;;;;;;;;;;;17.03;55.04;100627.47;2091168;28;19961;-54
2022/03/22 04:40:05;;;;;;;;;;;;;;;17.02;54.91;100623.00;2093993;28;20346;-53
2022/03/22 04:41:06;;;;;;;;;;;;;;;17.02;54.99;100614.81;2095896;28;19963;-54
2022/03/22 04:42:06;;;;;;;;;;;;;;;17.02;55.13;100619.41;2089930;28;20253;-53
2022/03/22 04:43:06;;;;;;;;;;;;;;;17.02;55.21;100619.41;2090401;28;19908;-54
2022/03/22 04:44:07;;;;;;;;;;;;;;;17.01;55.09;100624.00;2089228;28;19929;-52
2022/03/22 04:45:07;;;;;;;;;;;;;;;17.01;55.11;100624.00;2091431;28;19916;-54
2022/03/22 04:46:08;;;;;;;;;;;;;;;17.01;55.06;100624.00;2090641;28;20353;-53
2022/03/22 04:47:08;;;;;;;;;;;;;;;17.01;54.99;100618.56;2092141;28;19920;-53
2022/03/22 04:48:09;;;;;;;;;;;;;;;17.01;55.01;100624.00;2091751;28;19939;-53
2022/03/22 04:49:09;;;;;;;;;;;;;;;17.01;54.99;100623.13;2096394;28;20493;-53
2022/03/22 04:50:09;;;;;;;;;;;;;;;17.01;54.77;100624.00;2098944;28;19920;-53
2022/03/22 04:57:46;;;;;;;;;;;;;;;16.99;55.38;100620.53;2092577;28;20564;-53
2022/03/22 04:58:48;;;;;;;;;;;;;;;16.99;55.17;100625.97;2092736;28;19989;-53
2022/03/22 04:59:49;;;;;;;;;;;;;;;17.00;55.17;100629.56;2091413;28;19920;-53
2022/03/22 05:00:49;;;;;;;;;;;;;;;17.00;55.03;100625.00;2090093;28;20346;-54
2022/03/22 05:01:51;;;;;;;;;;;;;;;17.00;55.30;100625.00;2092785;28;20358;-54
2022/03/22 05:02:52;;;;;;;;;;;;;;;17.00;55.19;100627.72;2093864;28;20371;-54
2022/03/22 05:03:52;;;;;;;;;;;;;;;17.00;55.23;100622.28;2091775;28;20010;-54
2022/03/22 05:04:53;;;;;;;;;;;;;;;17.00;54.89;100621.38;2093467;28;20342;-54
2022/03/22 05:07:12;;;;;;;;;;;;;;;17.00;55.09;100629.56;2093961;28;20538;-54
2022/03/22 05:08:12;;;;;;;;;;;;;;;17.00;55.05;100630.44;2093096;28;20344;-54
2022/03/22 05:09:13;;;;;;;;;;;;;;;17.01;55.14;100634.03;2089232;28;20475;-53
2022/03/22 05:10:13;;;;;;;;;;;;;;;17.02;55.00;100635.75;2089568;28;20078;-54
2022/03/22 05:11:13;;;;;;;;;;;;;;;17.02;54.84;100636.63;2088384;28;19920;-53
2022/03/22 05:12:14;;;;;;;;;;;;;;;17.01;54.97;100629.44;2095912;28;20386;-54
2022/03/22 05:13:14;;;;;;;;;;;;;;;17.03;54.98;100638.38;2089984;28;20114;-53
2022/03/22 05:14:14;;;;;;;;;;;;;;;17.04;55.06;100639.22;2094347;28;19916;-54
2022/03/22 05:15:15;;;;;;;;;;;;;;;17.03;55.04;100638.38;2092603;28;19953;-54
2022/03/22 05:16:15;;;;;;;;;;;;;;;17.02;55.00;100636.63;2089663;28;20011;-54
2022/03/22 05:17:21;;;;;;;;;;;;;;;17.02;54.91;100642.06;2098009;28;19971;-53
2022/03/22 05:18:21;;;;;;;;;;;;;;;17.04;54.84;100644.69;2083480;28;19942;-54
2022/03/22 05:19:21;;;;;;;;;;;;;;;17.03;54.76;100637.50;2075337;28;19946;-53
2022/03/22 05:20:22;;;;;;;;;;;;;;;17.04;54.79;100639.22;2082532;28;19920;-53
2022/03/22 05:21:24;;;;;;;;;;;;;;;17.03;54.74;100638.38;2077916;28;19927;-53
2022/03/22 05:22:24;;;;;;;;;;;;;;;17.02;54.68;100642.06;2088367;28;20837;-53
2022/03/22 05:23:24;;;;;;;;;;;;;;;17.02;54.59;100647.50;2091057;28;19927;-53
2022/03/22 05:24:25;;;;;;;;;;;;;;;17.01;54.84;100640.34;2091101;28;19920;-52
2022/03/22 05:25:31;;;;;;;;;;;;;;;17.02;54.72;100636.63;2095094;28;19926;-52
2022/03/22 05:26:31;;;;;;;;;;;;;;;17.00;54.87;100638.63;2088104;28;19921;-53
2022/03/22 05:27:31;;;;;;;;;;;;;;;17.00;54.67;100633.16;2090898;28;19920;-53
2022/03/22 05:28:32;;;;;;;;;;;;;;;17.00;54.82;100644.06;2098776;28;19927;-52
2022/03/22 05:29:32;;;;;;;;;;;;;;;16.99;54.90;100639.59;2092241;28;19924;-53
2022/03/22 05:30:33;;;;;;;;;;;;;;;16.99;54.75;100647.75;2101311;28;19920;-53
2022/03/22 05:31:34;;;;;;;;;;;;;;;16.98;54.54;100646.03;2091123;28;20005;-53
2022/03/22 05:32:34;;;;;;;;;;;;;;;16.99;54.92;100645.03;2094472;28;19967;-53
2022/03/22 05:33:36;;;;;;;;;;;;;;;16.97;54.86;100633.41;2093425;28;20046;-53
2022/03/22 05:34:36;;;;;;;;;;;;;;;16.98;54.85;100635.16;2089904;28;20011;-53
2022/03/22 05:35:36;;;;;;;;;;;;;;;16.97;54.87;100643.44;2091734;28;19912;-52
2022/03/22 05:36:36;;;;;;;;;;;;;;;16.96;54.88;100641.72;2089081;28;19989;-53